Terminal Aerodrome Forecast
Issued by NWS

Home | Current Version | Previous Version | Text Only | Print | Product List | Glossary On
Versions: 1 2 3 4 5 6 7 8 9 10 11 12
000
FTUS45 KGGW 250520
TAFSDY
TAF
KSDY 250520Z 2506/2606 28009KT P6SM FEW210
     FM251400 22006KT P6SM SCT190
     FM251900 23010KT P6SM SCT130
     FM260000 23006KT P6SM FEW250=

USA.gov is the U.S. government's official web portal to all federal, state and local government web resources and services.